createdAt,value
2022-10-29T02:13:27.246Z,9.00
2022-10-29T02:15:57.275Z,8.85
2022-10-29T02:18:25.284Z,9.60
2022-10-29T02:20:53.022Z,10.02
2022-10-29T02:23:20.680Z,10.57
2022-10-29T02:25:48.347Z,14.57
2022-10-29T02:28:16.173Z,11.63
2022-10-29T02:30:43.807Z,11.50
2022-10-29T02:33:11.531Z,10.82
2022-10-29T02:35:39.190Z,11.70
2022-10-29T02:38:06.880Z,9.40
2022-10-29T02:40:34.573Z,9.68
2022-10-29T02:43:02.252Z,9.48
2022-10-29T02:45:29.897Z,10.70
2022-10-29T02:47:57.833Z,9.70
2022-10-29T02:50:25.960Z,10.63
2022-10-29T02:52:53.622Z,10.02
2022-10-29T02:55:21.335Z,10.45
2022-10-29T02:57:49.105Z,10.32
2022-10-29T03:00:17.440Z,11.45
2022-10-29T03:02:45.448Z,11.85
2022-10-29T03:05:13.228Z,11.30
2022-10-29T03:07:40.868Z,12.77
2022-10-29T03:10:09.079Z,12.40
2022-10-29T03:12:36.810Z,11.40
2022-10-29T03:15:04.915Z,10.63
2022-10-29T03:17:32.535Z,10.18
2022-10-29T03:20:00.275Z,9.82
2022-10-29T03:22:28.108Z,12.38
2022-10-29T03:24:55.756Z,13.57
2022-10-29T03:27:23.541Z,14.57
2022-10-29T03:29:51.288Z,13.20
2022-10-29T03:32:18.963Z,14.38
2022-10-29T03:34:46.701Z,11.40
2022-10-29T03:37:14.499Z,10.13
2022-10-29T03:39:42.203Z,10.32
2022-10-29T03:42:09.890Z,10.05
2022-10-29T03:44:37.639Z,11.52
2022-10-29T03:47:08.177Z,10.98
2022-10-29T03:49:35.778Z,10.60
2022-10-29T03:52:03.557Z,10.18
2022-10-29T03:54:31.260Z,11.68
2022-10-29T03:56:58.919Z,11.38
2022-10-29T03:59:26.530Z,10.27
2022-10-29T04:01:54.381Z,9.85
2022-10-29T04:04:22.184Z,10.02
2022-10-29T04:06:49.908Z,9.40
2022-10-29T04:09:17.629Z,10.23
2022-10-29T04:11:45.321Z,10.68
2022-10-29T04:14:13.133Z,10.98
2022-10-29T04:16:40.838Z,11.05
2022-10-29T04:19:08.623Z,10.93
2022-10-29T04:29:59.315Z,10.27
2022-10-29T04:32:27.957Z,10.23
2022-10-29T04:34:55.571Z,12.13
2022-10-29T04:37:23.748Z,11.60
2022-10-29T04:39:52.661Z,13.43
2022-10-29T04:42:20.609Z,12.32
2022-10-29T04:44:48.251Z,11.10
2022-10-29T04:47:16.035Z,13.07
2022-10-29T04:49:43.731Z,13.98
2022-10-29T04:52:11.370Z,13.10
2022-10-29T04:54:39.107Z,11.00
2022-10-29T04:57:06.920Z,11.60
2022-10-29T04:59:34.675Z,11.30
2022-10-29T05:02:02.378Z,10.68
2022-10-29T05:04:30.191Z,12.65
2022-10-29T05:06:57.910Z,15.40
2022-10-29T05:09:25.612Z,16.48
2022-10-29T05:11:53.415Z,13.10
2022-10-29T05:14:21.064Z,11.60
2022-10-29T05:16:48.766Z,12.73
2022-10-29T05:19:16.498Z,12.93
2022-10-29T05:21:44.323Z,12.25
2022-10-29T05:24:11.924Z,12.00
2022-10-29T05:26:39.651Z,12.82
2022-10-29T05:29:07.369Z,12.38
2022-10-29T05:31:35.035Z,13.43
2022-10-29T05:34:02.786Z,13.25
2022-10-29T05:36:30.585Z,14.20
2022-10-29T05:38:58.520Z,13.60
2022-10-29T05:41:26.170Z,14.48
2022-10-29T05:43:53.840Z,12.07
2022-10-29T05:46:21.539Z,11.75
2022-10-29T05:48:49.371Z,15.73
2022-10-29T05:51:17.099Z,15.68
2022-10-29T05:53:44.851Z,15.50
2022-10-29T05:56:12.492Z,14.43
2022-10-29T05:58:40.247Z,12.85
2022-10-29T06:01:10.352Z,12.70
2022-10-29T06:03:38.634Z,17.38
2022-10-29T06:06:06.740Z,15.68
2022-10-29T06:08:34.514Z,15.00
2022-10-29T06:11:03.434Z,14.10
2022-10-29T06:13:31.259Z,16.40
2022-10-29T06:16:00.909Z,15.40
2022-10-29T06:18:29.187Z,14.48
2022-10-29T06:21:00.787Z,16.45
2022-10-29T06:23:29.389Z,14.48
2022-10-29T06:26:01.120Z,15.05
2022-10-29T06:28:34.510Z,13.38
2022-10-29T06:31:03.206Z,16.17
2022-10-29T06:33:30.857Z,15.38
2022-10-29T06:36:00.663Z,16.20
2022-10-29T06:38:28.538Z,14.18
2022-10-29T06:40:56.270Z,13.55
2022-10-29T06:43:23.969Z,14.52
2022-10-29T06:45:53.015Z,15.23
2022-10-29T06:48:22.524Z,15.93
2022-10-29T06:50:51.704Z,17.35
2022-10-29T06:53:20.078Z,15.88
2022-10-29T06:55:47.831Z,16.23
2022-10-29T06:58:19.680Z,18.13
2022-10-29T07:00:48.743Z,13.57
2022-10-29T07:03:19.806Z,14.32
2022-10-29T07:05:47.890Z,13.02
2022-10-29T07:08:15.609Z,11.77
2022-10-29T07:10:43.320Z,12.18
2022-10-29T07:13:11.152Z,11.00
2022-10-29T07:15:38.859Z,12.70
2022-10-29T07:18:08.949Z,14.75
2022-10-29T07:20:41.055Z,15.52
2022-10-29T07:23:10.286Z,15.00
2022-10-29T07:25:38.904Z,13.93
2022-10-29T07:28:23.171Z,13.60
2022-10-29T07:30:52.317Z,15.65
2022-10-29T07:33:20.153Z,14.10
2022-10-29T07:35:47.929Z,15.45
2022-10-29T07:38:15.606Z,19.20
2022-10-29T07:40:50.958Z,14.73
2022-10-29T07:43:21.816Z,17.83
2022-10-29T07:45:52.579Z,16.05
2022-10-29T07:48:21.566Z,14.80
2022-10-29T07:50:49.475Z,14.40
2022-10-29T07:53:17.452Z,13.98
2022-10-29T07:55:51.600Z,16.20
2022-10-29T07:58:19.396Z,15.05
2022-10-29T08:00:47.316Z,15.73
2022-10-29T08:03:15.106Z,13.63
2022-10-29T08:05:43.225Z,16.85
2022-10-29T08:08:11.134Z,17.77
2022-10-29T08:10:39.291Z,16.55
2022-10-29T08:13:07.654Z,16.15
2022-10-29T08:15:35.815Z,16.48
2022-10-29T08:18:09.824Z,18.42
2022-10-29T08:20:37.595Z,18.05
2022-10-29T08:23:05.274Z,14.07
2022-10-29T08:25:33.017Z,12.52
2022-10-29T08:28:05.702Z,14.32
2022-10-29T08:30:34.600Z,14.27
2022-10-29T08:33:11.898Z,11.70
2022-10-29T08:35:39.600Z,11.75
2022-10-29T08:38:07.419Z,10.25
2022-10-29T08:41:13.131Z,11.07
2022-10-29T08:44:18.080Z,12.05
2022-10-29T08:47:21.282Z,12.13
2022-10-29T08:50:30.278Z,12.32
2022-10-29T08:53:22.420Z,12.27
2022-10-29T08:55:47.201Z,12.00
2022-10-29T08:58:38.751Z,11.13
2022-10-29T09:01:12.237Z,10.40
2022-10-29T09:03:40.212Z,10.93
2022-10-29T09:06:44.322Z,9.93
2022-10-29T09:09:36.543Z,9.95
2022-10-29T09:12:34.250Z,11.43
2022-10-29T09:15:19.308Z,11.23
2022-10-29T09:18:34.599Z,11.15
2022-10-29T09:21:33.182Z,11.00
2022-10-29T09:24:08.936Z,11.23
2022-10-29T09:27:08.076Z,10.32
2022-10-29T09:30:16.722Z,13.13
2022-10-29T09:33:12.079Z,12.43
2022-10-29T09:35:45.609Z,11.90
2022-10-29T09:38:24.318Z,11.30
2022-10-29T09:40:52.041Z,11.75
2022-10-29T09:43:34.773Z,14.30
2022-10-29T09:46:19.374Z,15.23
2022-10-29T09:49:08.685Z,16.55
2022-10-29T09:52:21.064Z,11.95
2022-10-29T09:54:52.274Z,9.60
2022-10-29T09:57:25.034Z,9.55
2022-10-29T10:00:03.988Z,8.85
2022-10-29T10:02:49.450Z,7.82
2022-10-29T10:05:27.547Z,11.27
2022-10-29T10:08:11.608Z,8.57
2022-10-29T10:11:00.348Z,5.70
2022-10-29T10:13:31.417Z,5.72
2022-10-29T10:16:06.172Z,7.80
2022-10-29T10:18:33.927Z,8.63
2022-10-29T10:21:23.810Z,8.50
2022-10-29T10:23:54.111Z,5.68
2022-10-29T10:26:34.902Z,6.97
2022-10-29T10:29:19.855Z,6.25
2022-10-29T10:31:49.911Z,8.23
2022-10-29T10:37:03.734Z,8.13
2022-10-29T10:39:43.883Z,6.05
2022-10-29T10:42:39.577Z,4.97
2022-10-29T10:45:25.582Z,4.20
2022-10-29T10:47:59.271Z,4.35
2022-10-29T10:50:33.197Z,4.45
2022-10-29T10:53:16.545Z,3.75
2022-10-29T10:55:59.846Z,4.82
2022-10-29T10:58:37.814Z,4.47
2022-10-29T11:01:24.521Z,4.47
2022-10-29T11:04:37.355Z,4.38
2022-10-29T11:07:12.805Z,3.78
2022-10-29T11:09:48.970Z,4.18
2022-10-29T11:13:06.334Z,5.32
2022-10-29T11:15:45.542Z,4.35
2022-10-29T11:18:35.112Z,3.70
2022-10-29T11:24:00.290Z,4.03
2022-10-29T11:29:14.786Z,3.72
2022-10-29T11:32:17.846Z,3.47
2022-10-29T11:35:13.376Z,3.85
2022-10-29T11:37:49.493Z,4.55
2022-10-29T11:40:29.910Z,3.90
2022-10-29T11:42:57.566Z,3.50
2022-10-29T11:45:53.675Z,3.75
2022-10-29T11:48:42.664Z,3.65
2022-10-29T11:51:35.770Z,4.80
2022-10-29T11:54:37.552Z,4.15
2022-10-29T11:57:20.428Z,10.50
2022-10-29T12:00:05.918Z,5.47
2022-10-29T12:02:48.096Z,6.30
2022-10-29T12:05:30.684Z,7.60
2022-10-29T12:08:20.685Z,6.53
2022-10-29T12:11:10.580Z,7.32
2022-10-29T12:14:20.585Z,6.90
2022-10-29T12:17:23.736Z,8.50
2022-10-29T12:20:02.879Z,9.60
2022-10-29T12:23:04.918Z,9.32
2022-10-29T12:26:06.213Z,9.68
2022-10-29T12:29:14.455Z,8.55
2022-10-29T12:31:51.014Z,7.90
2022-10-29T12:37:29.536Z,9.27
2022-10-29T12:40:06.568Z,8.07
2022-10-29T12:42:35.413Z,8.98
2022-10-29T12:45:24.869Z,8.98
2022-10-29T12:51:08.739Z,7.72
2022-10-29T12:53:52.774Z,8.38
2022-10-29T12:56:22.926Z,10.48
2022-10-29T12:59:18.558Z,7.57
2022-10-29T13:02:10.621Z,8.40
2022-10-29T13:04:34.847Z,7.45
2022-10-29T13:10:21.906Z,16.83
2022-10-29T13:12:55.624Z,16.05
2022-10-29T13:15:32.282Z,14.40
2022-10-29T13:18:18.210Z,34.92
2022-10-29T13:20:54.223Z,7.70
2022-10-29T13:23:31.264Z,9.52
2022-10-29T13:26:00.722Z,24.60
2022-10-29T13:28:28.319Z,20.65
2022-10-29T13:31:05.058Z,16.38
2022-10-29T13:33:32.609Z,12.93
2022-10-29T13:36:21.195Z,15.07
2022-10-29T13:39:04.603Z,15.75
2022-10-29T13:41:43.425Z,11.60
2022-10-29T13:44:19.495Z,6.72
2022-10-29T13:46:49.634Z,14.45
2022-10-29T13:49:40.475Z,6.13
2022-10-29T13:52:19.923Z,5.93
2022-10-29T13:54:59.184Z,7.05
2022-10-29T13:57:40.617Z,6.55
2022-10-29T14:00:11.180Z,8.05
2022-10-29T14:03:03.095Z,9.00
2022-10-29T14:05:44.774Z,10.73
2022-10-29T14:08:47.837Z,10.25
2022-10-29T14:11:19.473Z,10.82
2022-10-29T14:13:51.810Z,11.00
2022-10-29T14:16:29.300Z,9.75
2022-10-29T14:18:57.278Z,11.15
2022-10-29T14:21:36.851Z,12.98
2022-10-29T14:24:10.467Z,13.00
2022-10-29T14:26:44.901Z,12.70
2022-10-29T14:29:26.185Z,13.38
2022-10-29T14:32:18.678Z,13.80
2022-10-29T14:34:50.615Z,15.43
2022-10-29T14:37:28.560Z,14.60
2022-10-29T14:40:02.065Z,16.02
2022-10-29T14:42:45.155Z,14.20
2022-10-29T14:45:28.611Z,21.52
2022-10-29T14:48:01.398Z,19.90
2022-10-29T14:50:31.343Z,18.08
2022-10-29T14:53:07.531Z,18.90
2022-10-29T14:55:42.157Z,35.78
2022-10-29T14:58:29.786Z,22.63
2022-10-29T15:01:02.478Z,15.15
2022-10-29T15:03:34.388Z,14.98
2022-10-29T15:06:26.092Z,12.85
2022-10-29T15:09:07.550Z,16.35
2022-10-29T15:11:42.547Z,15.60
2022-10-29T15:14:45.820Z,14.38
2022-10-29T15:17:22.078Z,14.38
2022-10-29T15:20:00.671Z,13.98
2022-10-29T15:22:41.888Z,17.23
2022-10-29T15:25:40.465Z,23.13
2022-10-29T15:28:24.715Z,20.70
2022-10-29T15:30:52.984Z,21.80
2022-10-29T15:33:29.939Z,30.63
2022-10-29T15:36:02.689Z,27.00
2022-10-29T15:38:34.296Z,28.15
2022-10-29T15:41:20.138Z,26.70
2022-10-29T15:43:54.919Z,16.02
2022-10-29T15:46:29.682Z,13.82
2022-10-29T15:48:57.637Z,16.17
2022-10-29T15:51:31.350Z,15.98
2022-10-29T15:54:03.164Z,15.32
2022-10-29T15:56:31.993Z,14.35
2022-10-29T15:59:00.683Z,13.90
2022-10-29T16:01:29.990Z,13.18
2022-10-29T16:03:57.973Z,14.40
2022-10-29T16:06:25.841Z,17.15
2022-10-29T16:08:56.925Z,26.52
2022-10-29T16:11:25.466Z,78.20
2022-10-29T16:13:55.048Z,63.83
2022-10-29T16:16:25.527Z,45.45
2022-10-29T16:18:53.564Z,41.95
2022-10-29T16:21:26.429Z,45.80
2022-10-29T16:23:54.532Z,33.58
2022-10-29T16:26:26.306Z,29.90
2022-10-29T16:28:54.190Z,27.73
2022-10-29T16:31:28.570Z,23.80
2022-10-29T16:34:03.062Z,17.67
2022-10-29T16:36:30.961Z,15.63
2022-10-29T16:38:58.824Z,15.65
2022-10-29T16:41:28.618Z,18.70
2022-10-29T16:43:56.387Z,18.60
2022-10-29T16:46:24.150Z,19.13
2022-10-29T16:48:51.959Z,19.13
2022-10-29T16:51:19.812Z,16.48
2022-10-29T16:53:47.576Z,15.30
2022-10-29T16:56:15.404Z,18.50
2022-10-29T16:58:43.255Z,27.50
2022-10-29T17:01:11.329Z,25.50
2022-10-29T17:03:39.404Z,15.05
2022-10-29T17:06:10.203Z,18.27
2022-10-29T17:08:38.920Z,18.20
2022-10-29T17:11:10.256Z,19.30
2022-10-29T17:13:38.680Z,19.77
2022-10-29T17:16:14.786Z,17.42
2022-10-29T17:18:42.913Z,18.45
2022-10-29T17:21:10.700Z,19.27
2022-10-29T17:23:38.593Z,16.13
2022-10-29T17:26:06.505Z,14.82
2022-10-29T17:28:38.787Z,14.07
2022-10-29T17:31:11.555Z,14.02
2022-10-29T17:33:39.394Z,13.98
2022-10-29T17:36:13.667Z,15.00
2022-10-29T17:38:42.009Z,13.93
2022-10-29T17:41:09.886Z,12.77
2022-10-29T17:43:37.831Z,13.27
2022-10-29T17:46:06.333Z,15.10
2022-10-29T17:48:34.256Z,18.50
2022-10-29T17:51:03.590Z,15.77
2022-10-29T17:53:39.954Z,17.65
2022-10-29T17:56:09.009Z,29.45
2022-10-29T17:58:39.717Z,22.48
2022-10-29T18:01:11.132Z,15.20
2022-10-29T18:03:39.991Z,12.38
2022-10-29T18:06:11.878Z,11.82
2022-10-29T18:08:42.328Z,12.25
2022-10-29T18:11:18.885Z,12.52
2022-10-29T18:13:49.190Z,13.30
2022-10-29T18:16:20.599Z,17.73
2022-10-29T18:19:01.483Z,15.38
2022-10-29T18:21:31.529Z,13.38
2022-10-29T18:23:59.417Z,11.50
2022-10-29T18:26:34.109Z,12.18
2022-10-29T18:29:08.397Z,14.40
2022-10-29T18:31:37.698Z,16.25
2022-10-29T18:34:07.918Z,14.57
2022-10-29T18:36:36.140Z,14.05
2022-10-29T18:39:06.497Z,12.52
2022-10-29T18:44:03.048Z,10.90
2022-10-29T18:46:31.231Z,12.95
2022-10-29T18:49:01.183Z,13.73
2022-10-29T18:51:32.173Z,24.20
2022-10-29T18:54:01.359Z,30.23
2022-10-29T18:56:30.958Z,41.40
2022-10-29T18:59:00.421Z,23.60
2022-10-29T19:01:33.527Z,31.80
2022-10-29T19:04:05.057Z,21.60
2022-10-29T19:06:36.763Z,15.95
2022-10-29T19:09:08.402Z,13.38
2022-10-29T19:11:36.621Z,14.38
2022-10-29T19:14:10.862Z,14.48
2022-10-29T19:16:38.747Z,13.02
2022-10-29T19:19:11.556Z,12.40
2022-10-29T19:21:40.957Z,12.07
2022-10-29T19:24:13.811Z,12.13
2022-10-29T19:26:42.230Z,14.10
2022-10-29T19:29:10.645Z,25.20
2022-10-29T19:31:38.870Z,26.05
2022-10-29T19:34:09.065Z,15.90
2022-10-29T19:36:40.222Z,14.02
2022-10-29T19:39:08.353Z,17.60
2022-10-29T19:41:36.389Z,39.58
2022-10-29T19:44:04.611Z,19.48
2022-10-29T19:46:32.435Z,13.50
2022-10-29T19:49:00.840Z,20.63
2022-10-29T19:51:29.215Z,22.52
2022-10-29T19:53:58.764Z,14.43
2022-10-29T19:56:26.473Z,12.63
2022-10-29T19:58:54.362Z,11.80
2022-10-29T20:01:22.247Z,12.30
2022-10-29T20:03:50.530Z,11.98
2022-10-29T20:06:18.423Z,11.48
2022-10-29T20:08:46.285Z,13.30
2022-10-29T20:11:14.184Z,12.93
2022-10-29T20:13:42.555Z,13.32
2022-10-29T20:16:16.407Z,12.43
2022-10-29T20:18:44.532Z,10.32
2022-10-29T20:21:13.934Z,9.85
2022-10-29T20:23:41.892Z,9.82
2022-10-29T20:26:10.360Z,10.25
2022-10-29T20:28:38.193Z,10.15
2022-10-29T20:31:17.024Z,9.70
2022-10-29T20:33:53.673Z,12.00
2022-10-29T20:36:24.690Z,10.10
2022-10-29T20:38:53.825Z,10.48
2022-10-29T20:41:22.825Z,10.80
2022-10-29T20:43:56.701Z,12.07
2022-10-29T20:46:25.719Z,10.40
2022-10-29T20:48:53.744Z,10.10
2022-10-29T20:51:23.286Z,13.48
2022-10-29T20:53:53.139Z,17.55
2022-10-29T20:56:23.663Z,14.23
2022-10-29T20:58:51.578Z,12.88
2022-10-29T21:01:22.989Z,13.90
2022-10-29T21:03:51.303Z,14.68
2022-10-29T21:06:19.783Z,13.50
2022-10-29T21:08:50.321Z,11.95
2022-10-29T21:11:20.946Z,9.38
2022-10-29T21:13:49.634Z,8.93
2022-10-29T21:16:23.596Z,10.13
2022-10-29T21:18:55.614Z,10.93
2022-10-29T21:21:23.971Z,12.30
2022-10-29T21:23:52.078Z,11.40
2022-10-29T21:26:23.300Z,11.90
2022-10-29T21:28:52.994Z,13.30
2022-10-29T21:31:23.536Z,33.47
2022-10-29T21:33:53.341Z,15.43
2022-10-29T21:36:22.087Z,12.05
2022-10-29T21:38:50.227Z,11.63
2022-10-29T21:41:18.661Z,15.20
2022-10-29T21:43:46.724Z,12.65
2022-10-29T21:46:14.646Z,11.25
2022-10-29T21:48:42.387Z,18.98
2022-10-29T21:51:17.401Z,12.63
2022-10-29T21:53:45.257Z,12.77
2022-10-29T21:56:15.110Z,10.75
2022-10-29T21:58:43.636Z,11.80
2022-10-29T22:01:16.877Z,9.68
2022-10-29T22:03:46.877Z,9.57
2022-10-29T22:06:21.200Z,9.73
2022-10-29T22:08:58.426Z,8.40
2022-10-29T22:11:28.436Z,8.85
2022-10-29T22:13:56.263Z,10.73
2022-10-29T22:16:24.200Z,12.05
2022-10-29T22:18:53.227Z,11.50
2022-10-29T22:21:25.236Z,13.40
2022-10-29T22:23:58.194Z,22.50
2022-10-29T22:26:29.854Z,21.50
2022-10-29T22:28:57.742Z,22.15
2022-10-29T22:31:25.895Z,27.20
2022-10-29T22:33:53.868Z,22.85
2022-10-29T22:36:25.213Z,25.00
2022-10-29T22:38:59.227Z,20.67
2022-10-29T22:41:28.291Z,19.65
2022-10-29T22:44:00.107Z,15.18
2022-10-29T22:46:30.336Z,16.27
2022-10-29T22:48:58.915Z,14.50
2022-10-29T22:51:29.916Z,14.55
2022-10-29T22:53:58.501Z,13.35
2022-10-29T22:56:30.974Z,12.73
2022-10-29T22:58:58.839Z,12.02
2022-10-29T23:01:37.340Z,13.52
2022-10-29T23:04:08.157Z,12.82
2022-10-29T23:06:36.880Z,11.65
2022-10-29T23:09:04.813Z,12.48
2022-10-29T23:11:35.110Z,12.57
2022-10-29T23:14:03.163Z,12.80
2022-10-29T23:16:33.999Z,13.23
2022-10-29T23:19:04.646Z,13.02
2022-10-29T23:24:00.959Z,11.88
2022-10-29T23:26:29.377Z,18.92
2022-10-29T23:28:57.480Z,19.75
2022-10-29T23:31:28.010Z,13.93
2022-10-29T23:33:57.988Z,19.00
2022-10-29T23:36:27.949Z,13.02
2022-10-29T23:38:59.049Z,11.45
2022-10-29T23:41:29.386Z,9.90
2022-10-29T23:43:58.412Z,9.48
2022-10-29T23:46:26.295Z,9.63
2022-10-29T23:48:54.523Z,10.65
2022-10-29T23:51:22.390Z,11.40
2022-10-29T23:53:53.280Z,12.20
2022-10-29T23:56:24.664Z,9.73
2022-10-29T23:58:52.473Z,11.68
